Father Pat — WDG2791 — position and weather

sailwx.info

Track history (hours):
 
Tides and Currents Weather Stations Pressure Air Temp Water Temp Dewpoint Dewpoint Depression Visibility Wind Speed Wind Dir Waves Ship Positions

Father Pat

Owner: Marquette Transportation Company Gulf-Inland, LLC, Jefferson, LA. More information available from US FCC via Universal Licensing System and Coast Guard Vessel Documentation Center.

Last reported at 2014-Dec-17 20:27 UTC. Time now 2014-Dec-19 23:29 UTC.
Position N 29°19' W 094°52'.

Type: Towing. MMSI: 367519320.

Date/timePositionNaut miles runAvg speedWind from/ knotsBaromVisibWave heightAir tempDewpointWater temp
2014-Dec-17 20:27N 29°19' W 094°52'5 5.1
2014-Dec-17 19:32N 29°17' W 094°56'3 2.5
2014-Dec-17 18:10N 29°16' W 094°60'0 0.5
2014-Dec-17 17:16N 29°16' W 094°59'4 5.5
2014-Dec-17 16:32N 29°13' W 095°02'  
2014-Dec-09 16:08N 29°44' W 091°34'7 4.1
2014-Dec-09 14:32N 29°40' W 091°27'4 4.1
2014-Dec-09 13:33N 29°39' W 091°23'5 5.0
2014-Dec-09 12:33N 29°39' W 091°17'5 4.8
2014-Dec-09 11:33N 29°42' W 091°13'3 3.5
2014-Dec-09 10:33N 29°45' W 091°11'4 4.3
2014-Dec-09 09:33N 29°49' W 091°10'4 4.1
2014-Dec-09 08:33N 29°53' W 091°13'4 3.8
2014-Dec-09 07:30N 29°56' W 091°15'4 3.7
2014-Dec-09 06:33N 29°59' W 091°16'25 0.9
2014-Dec-08 03:20N 30°24' W 091°13'0 0.0
2014-Dec-08 02:26N 30°24' W 091°13'  
Track history (hours):
 
Tides and Currents Weather Stations Pressure Air Temp Water Temp Dewpoint Dewpoint Depression Visibility Wind Speed Wind Dir Waves Ship Positions

Father Pat

Owner: Marquette Transportation Company Gulf-Inland, LLC, Jefferson, LA. More information available from US FCC via Universal Licensing System and Coast Guard Vessel Documentation Center.

Last reported at 2014-Dec-17 20:27 UTC. Time now 2014-Dec-19 23:29 UTC.
Position N 29°19' W 094°52'.

Type: Towing. MMSI: 367519320.

Date/timePositionNaut miles runAvg speedWind from/ knotsBaromVisibWave heightAir tempDewpointWater temp
2014-Dec-17 20:27N 29°19' W 094°52'5 5.1
2014-Dec-17 19:32N 29°17' W 094°56'3 2.5
2014-Dec-17 18:10N 29°16' W 094°60'0 0.5
2014-Dec-17 17:16N 29°16' W 094°59'4 5.5
2014-Dec-17 16:32N 29°13' W 095°02'  
2014-Dec-09 16:08N 29°44' W 091°34'7 4.1
2014-Dec-09 14:32N 29°40' W 091°27'4 4.1
2014-Dec-09 13:33N 29°39' W 091°23'5 5.0
2014-Dec-09 12:33N 29°39' W 091°17'5 4.8
2014-Dec-09 11:33N 29°42' W 091°13'3 3.5
2014-Dec-09 10:33N 29°45' W 091°11'4 4.3
2014-Dec-09 09:33N 29°49' W 091°10'4 4.1
2014-Dec-09 08:33N 29°53' W 091°13'4 3.8
2014-Dec-09 07:30N 29°56' W 091°15'4 3.7
2014-Dec-09 06:33N 29°59' W 091°16'25 0.9
2014-Dec-08 03:20N 30°24' W 091°13'0 0.0
2014-Dec-08 02:26N 30°24' W 091°13'  

Dump ship's entire track history